Time;durP1;ratioP1;P1;durP2;ratioP2;P2;SDS_P1;SDS_P2;PMS_P1;PMS_P2;Temp;Humidity;BMP_temperature;BMP_pressure;BME280_temperature;BME280_humidity;BME280_pressure;Samples;Min_cycle;Max_cycle;Signal;HPM_P1;HPM_P2
2021/07/20 10:42:07;;;;;;;21.98;12.32;;;26.70;83.10;;;;;;12078226;28;20044;-62
2021/07/20 10:47:59;;;;;;;19.88;12.23;;;27.60;80.60;;;;;;12072862;28;20052;-62
2021/07/20 10:53:55;;;;;;;19.33;12.57;;;28.10;78.00;;;;;;12081378;28;20542;-62
2021/07/20 11:00:03;;;;;;;23.48;13.23;;;28.40;76.00;;;;;;12101160;28;20036;-62
2021/07/20 11:05:52;;;;;;;18.05;12.32;;;28.50;73.30;;;;;;12086116;27;20048;-62
2021/07/20 11:11:51;;;;;;;20.95;11.82;;;28.70;72.70;;;;;;12032717;28;20108;-59
2021/07/20 11:17:41;;;;;;;19.08;11.38;;;28.80;71.80;;;;;;12021192;28;20042;-60
2021/07/20 11:23:32;;;;;;;21.15;12.60;;;28.90;71.10;;;;;;12029752;28;20087;-59
2021/07/20 11:29:20;;;;;;;21.42;12.35;;;29.00;70.90;;;;;;12041282;28;20040;-58
2021/07/20 11:35:16;;;;;;;25.52;12.98;;;29.20;69.40;;;;;;12028798;28;20049;-59
2021/07/20 11:41:13;;;;;;;24.63;12.50;;;29.30;69.80;;;;;;12031285;28;20045;-59
2021/07/20 11:47:05;;;;;;;19.83;13.65;;;29.40;70.10;;;;;;12038748;28;20071;-59
2021/07/20 11:53:02;;;;;;;18.30;12.27;;;29.50;68.90;;;;;;12040915;28;20509;-59
2021/07/20 11:59:35;;;;;;;20.48;13.30;;;29.70;68.90;;;;;;12008319;28;20065;-60
2021/07/20 12:05:54;;;;;;;23.63;13.27;;;29.70;67.10;;;;;;12014769;28;20049;-58
2021/07/20 12:11:45;;;;;;;18.55;12.48;;;29.70;66.90;;;;;;11816388;28;20058;-59
2021/07/20 12:17:33;;;;;;;21.55;13.48;;;29.70;67.90;;;;;;11850832;28;20464;-59
2021/07/20 12:23:20;;;;;;;22.50;13.85;;;29.70;68.00;;;;;;11839322;28;20057;-59
2021/07/20 12:29:10;;;;;;;22.77;13.93;;;29.90;67.50;;;;;;11849488;28;20046;-59
2021/07/20 12:35:01;;;;;;;22.15;13.52;;;29.90;67.70;;;;;;11848576;28;20129;-59
2021/07/20 12:40:48;;;;;;;24.08;13.82;;;30.10;65.00;;;;;;11849062;28;20177;-59
2021/07/20 12:46:40;;;;;;;22.17;13.70;;;30.10;65.50;;;;;;12025814;28;20045;-59
2021/07/20 12:52:28;;;;;;;23.43;13.33;;;30.20;65.90;;;;;;12019771;28;20118;-59
2021/07/20 12:58:20;;;;;;;23.95;13.00;;;30.40;65.50;;;;;;11996716;28;20044;-59
2021/07/20 13:04:08;;;;;;;22.92;13.45;;;30.60;63.90;;;;;;12001193;28;20094;-59
2021/07/20 13:09:56;;;;;;;25.70;13.25;;;30.70;64.30;;;;;;12035635;28;20093;-59
2021/07/20 13:15:48;;;;;;;19.45;12.35;;;30.80;64.40;;;;;;11997346;28;20048;-60
2021/07/20 13:21:40;;;;;;;19.85;11.55;;;30.90;62.20;;;;;;12035464;28;20040;-60
2021/07/20 13:27:35;;;;;;;19.17;11.63;;;31.00;61.20;;;;;;12040325;28;20037;-60
2021/07/20 13:33:23;;;;;;;19.35;11.10;;;31.00;60.80;;;;;;12039315;28;20811;-59
2021/07/20 13:39:13;;;;;;;22.45;11.88;;;31.10;62.30;;;;;;12040408;28;20543;-59
2021/07/20 13:45:01;;;;;;;18.02;10.70;;;31.30;61.70;;;;;;12039158;28;20053;-60
2021/07/20 13:50:51;;;;;;;16.80;9.85;;;31.30;60.40;;;;;;12037504;28;20047;-60
2021/07/20 13:56:42;;;;;;;15.45;9.25;;;31.40;60.20;;;;;;12039586;28;20040;-60
2021/07/20 14:02:30;;;;;;;20.45;10.23;;;31.60;58.30;;;;;;12038964;28;20048;-60
2021/07/20 14:08:17;;;;;;;18.00;9.40;;;31.70;58.40;;;;;;12023454;28;20053;-60
2021/07/20 14:14:07;;;;;;;15.98;9.07;;;31.80;57.10;;;;;;12022220;28;20044;-60
2021/07/20 14:19:54;;;;;;;17.92;8.55;;;31.70;57.30;;;;;;12020591;28;20611;-60
2021/07/20 14:25:47;;;;;;;15.70;8.60;;;31.70;57.30;;;;;;12024070;28;20048;-60
2021/07/20 14:31:36;;;;;;;41.15;24.73;;;31.90;57.20;;;;;;12022994;28;20044;-59
2021/07/20 14:37:39;;;;;;;36.63;23.73;;;32.10;56.70;;;;;;12012272;28;20056;-59
2021/07/20 14:43:35;;;;;;;22.85;9.10;;;32.10;57.50;;;;;;12026284;28;20071;-60
2021/07/20 14:49:23;;;;;;;13.35;7.80;;;32.20;56.40;;;;;;12024351;28;20178;-61
2021/07/20 14:55:12;;;;;;;14.55;8.43;;;32.30;56.90;;;;;;12021131;28;20064;-60
2021/07/20 15:01:08;;;;;;;14.63;7.47;;;32.40;55.90;;;;;;12025355;28;20048;-59
2021/07/20 15:07:00;;;;;;;15.98;7.20;;;32.50;55.90;;;;;;12018846;28;20052;-59
2021/07/20 15:12:47;;;;;;;14.00;7.43;;;32.60;54.00;;;;;;11994552;28;20058;-59
2021/07/20 15:18:58;;;;;;;18.80;7.25;;;32.40;55.40;;;;;;12005928;28;20520;-60
2021/07/20 15:24:49;;;;;;;15.85;6.70;;;32.60;53.30;;;;;;12007424;28;20063;-59
2021/07/20 15:30:39;;;;;;;12.93;6.40;;;32.80;55.80;;;;;;11947789;28;20509;-59
2021/07/20 15:36:26;;;;;;;13.43;6.90;;;33.00;54.60;;;;;;11975962;28;20047;-59
2021/07/20 15:42:17;;;;;;;19.58;7.10;;;33.20;54.60;;;;;;11989853;28;20049;-60
2021/07/20 15:48:08;;;;;;;11.77;6.32;;;33.20;52.00;;;;;;11892045;28;20050;-60
2021/07/20 15:53:55;;;;;;;15.52;6.72;;;34.00;52.50;;;;;;11888621;28;20064;-60
2021/07/20 15:59:43;;;;;;;14.35;6.65;;;35.60;50.10;;;;;;11926954;28;20559;-61
2021/07/20 16:05:30;;;;;;;10.20;5.82;;;36.90;49.60;;;;;;11876316;28;20426;-61
2021/07/20 16:11:25;;;;;;;16.05;6.82;;;37.70;47.30;;;;;;11985310;28;20040;-61
2021/07/20 16:17:18;;;;;;;15.38;6.70;;;38.70;46.10;;;;;;12032462;28;20076;-60
2021/07/20 16:23:07;;;;;;;12.48;6.43;;;39.20;42.80;;;;;;12032379;28;20056;-59
2021/07/20 16:28:54;;;;;;;12.05;6.38;;;39.60;43.50;;;;;;12003811;28;20504;-60
2021/07/20 16:34:43;;;;;;;15.88;6.63;;;40.20;43.40;;;;;;12003053;28;20048;-60
2021/07/20 16:40:32;;;;;;;11.20;7.50;;;40.90;41.40;;;;;;11986400;28;20420;-59
2021/07/20 16:46:22;;;;;;;13.45;7.30;;;41.30;41.20;;;;;;11924186;28;20040;-60
2021/07/20 16:52:11;;;;;;;11.13;6.80;;;41.50;41.10;;;;;;11948889;28;20052;-59
2021/07/20 16:57:58;;;;;;;12.05;6.30;;;41.70;41.10;;;;;;12005147;28;20044;-59
2021/07/20 17:03:46;;;;;;;17.00;6.32;;;41.50;40.60;;;;;;12013249;28;20044;-59
2021/07/20 17:09:35;;;;;;;24.25;7.80;;;42.30;39.30;;;;;;12012071;28;20041;-59
2021/07/20 17:15:27;;;;;;;15.13;7.30;;;43.00;38.20;;;;;;11986964;28;20061;-58
2021/07/20 17:21:16;;;;;;;17.60;7.35;;;42.90;38.00;;;;;;11962640;28;20053;-59
2021/07/20 17:27:05;;;;;;;13.30;6.53;;;43.10;38.90;;;;;;12013112;28;20532;-60
2021/07/20 17:32:53;;;;;;;13.07;7.57;;;43.10;37.90;;;;;;11957666;28;20064;-60
2021/07/20 17:38:43;;;;;;;14.63;7.15;;;43.40;38.50;;;;;;11975751;28;20045;-59
2021/07/20 17:44:36;;;;;;;11.18;6.95;;;43.60;37.60;;;;;;11937499;28;20436;-59
2021/07/20 17:50:26;;;;;;;16.92;6.78;;;43.90;37.50;;;;;;11920174;28;20425;-59
2021/07/20 17:56:13;;;;;;;15.55;6.45;;;44.10;36.40;;;;;;12018882;28;20041;-60
2021/07/20 18:02:01;;;;;;;14.25;6.05;;;43.80;36.40;;;;;;11901525;28;20157;-60
2021/07/20 18:07:50;;;;;;;11.70;5.75;;;43.50;36.00;;;;;;11925381;28;20124;-60
2021/07/20 18:13:36;;;;;;;12.90;6.00;;;43.30;35.80;;;;;;11879785;28;20084;-60
2021/07/20 18:19:25;;;;;;;11.32;5.70;;;42.60;36.40;;;;;;11961162;28;20119;-61
2021/07/20 18:25:12;;;;;;;9.82;6.00;;;42.70;36.20;;;;;;12029390;28;20041;-60
2021/07/20 18:30:59;;;;;;;16.42;6.20;;;42.40;36.90;;;;;;12030071;28;20044;-60
2021/07/20 18:36:51;;;;;;;10.48;5.72;;;41.80;38.30;;;;;;12014141;28;20056;-61
2021/07/20 18:42:38;;;;;;;10.57;5.80;;;41.20;38.70;;;;;;11966193;28;20673;-60
2021/07/20 18:48:25;;;;;;;9.38;6.20;;;40.70;39.40;;;;;;11907485;28;20135;-60
2021/07/20 18:54:13;;;;;;;11.77;6.35;;;40.00;40.00;;;;;;11941424;28;20552;-60
2021/07/20 19:00:00;;;;;;;11.05;6.72;;;39.20;40.70;;;;;;11917298;28;20070;-60
2021/07/20 19:05:47;;;;;;;14.35;7.18;;;38.40;42.30;;;;;;11967316;28;20055;-61
2021/07/20 19:11:35;;;;;;;12.30;7.13;;;36.80;44.60;;;;;;12015690;28;20052;-62
2021/07/20 19:17:22;;;;;;;13.02;7.15;;;35.20;47.00;;;;;;11968960;28;20044;-60
2021/07/20 19:23:10;;;;;;;16.20;6.85;;;34.10;49.40;;;;;;11994589;28;20041;-61
2021/07/20 19:28:59;;;;;;;12.57;6.97;;;33.20;51.10;;;;;;12010638;28;20049;-61
2021/07/20 19:34:45;;;;;;;19.42;10.35;;;32.60;54.30;;;;;;12006122;28;20053;-62
2021/07/20 19:40:33;;;;;;;17.17;7.65;;;32.10;56.40;;;;;;12010272;28;20045;-61
2021/07/20 19:46:21;;;;;;;16.02;7.07;;;31.60;58.30;;;;;;12009310;28;20125;-64
2021/07/20 19:52:08;;;;;;;13.63;7.43;;;31.10;58.50;;;;;;11982623;28;20052;-62
2021/07/20 19:57:55;;;;;;;13.57;7.03;;;30.80;59.50;;;;;;12053296;28;20463;-62
2021/07/20 20:03:43;;;;;;;13.43;7.30;;;30.50;60.40;;;;;;12058552;28;20098;-62
2021/07/20 20:09:39;;;;;;;12.05;7.07;;;30.20;61.20;;;;;;11986978;28;20053;-61
2021/07/20 20:15:26;;;;;;;15.18;7.40;;;29.90;61.60;;;;;;12005231;28;20105;-63
2021/07/20 20:21:14;;;;;;;16.98;7.60;;;29.70;61.80;;;;;;11977089;28;20056;-62
2021/07/20 20:27:01;;;;;;;15.95;7.75;;;29.60;62.10;;;;;;11993179;28;20048;-61
2021/07/20 20:32:48;;;;;;;14.77;7.20;;;29.40;63.00;;;;;;12026563;28;20044;-62
2021/07/20 20:38:36;;;;;;;17.55;7.55;;;29.20;63.40;;;;;;12016478;28;20060;-62
2021/07/20 20:44:23;;;;;;;15.70;6.93;;;29.10;63.40;;;;;;11978927;28;20068;-61
2021/07/20 20:50:11;;;;;;;14.55;7.57;;;28.90;63.40;;;;;;12007641;28;21292;-61
2021/07/20 20:56:01;;;;;;;13.95;6.88;;;28.80;64.20;;;;;;12023732;28;20045;-62
2021/07/20 21:01:48;;;;;;;14.57;7.47;;;28.60;64.90;;;;;;12027102;28;20146;-62
2021/07/20 21:07:34;;;;;;;16.83;7.93;;;28.50;65.40;;;;;;12025916;28;20040;-62
2021/07/20 21:13:23;;;;;;;11.68;7.57;;;28.30;66.20;;;;;;12020586;28;20063;-62
2021/07/20 21:19:10;;;;;;;15.98;8.07;;;28.10;66.60;;;;;;12025755;28;20542;-61
2021/07/20 21:24:57;;;;;;;17.05;7.68;;;28.10;66.90;;;;;;12009506;28;20048;-63
2021/07/20 21:30:45;;;;;;;13.20;7.63;;;28.00;67.50;;;;;;12023668;28;20060;-62
2021/07/20 21:36:32;;;;;;;13.10;8.02;;;27.90;67.90;;;;;;12011794;28;20091;-61
2021/07/20 21:42:19;;;;;;;22.52;8.00;;;27.90;68.20;;;;;;11976500;28;20437;-61
2021/07/20 21:48:08;;;;;;;20.10;8.38;;;27.90;68.40;;;;;;11988515;28;20078;-62
2021/07/20 21:53:55;;;;;;;14.07;7.85;;;27.80;68.40;;;;;;12015162;28;20053;-62
2021/07/20 21:59:42;;;;;;;22.40;8.43;;;27.70;69.20;;;;;;11974483;28;20041;-61
2021/07/20 22:05:32;;;;;;;20.45;8.35;;;27.60;69.80;;;;;;11971053;28;20045;-62
2021/07/20 22:11:19;;;;;;;19.33;8.60;;;27.50;70.30;;;;;;12003107;28;20056;-61
2021/07/20 22:17:07;;;;;;;15.35;8.30;;;27.40;70.70;;;;;;11989233;28;20049;-61
2021/07/20 22:22:55;;;;;;;20.80;8.13;;;27.30;71.20;;;;;;12000511;28;20052;-62
2021/07/20 22:28:42;;;;;;;20.42;8.45;;;27.30;71.90;;;;;;11978111;28;20048;-61
2021/07/20 22:34:29;;;;;;;14.90;7.45;;;27.20;71.90;;;;;;11999525;28;20607;-61
2021/07/20 22:40:18;;;;;;;14.10;8.07;;;27.10;71.60;;;;;;12028406;28;20403;-61
2021/07/20 22:46:08;;;;;;;12.55;8.38;;;27.10;71.70;;;;;;12003671;28;20515;-61
2021/07/20 22:51:55;;;;;;;12.88;7.70;;;27.00;72.30;;;;;;11990745;28;20532;-61
2021/07/20 22:57:44;;;;;;;12.00;7.43;;;27.00;72.30;;;;;;11976587;28;20096;-61
2021/07/20 23:03:31;;;;;;;17.50;8.85;;;26.90;72.30;;;;;;12016520;28;20056;-62
2021/07/20 23:09:18;;;;;;;22.52;9.00;;;26.90;72.70;;;;;;11991268;28;20072;-62
2021/07/20 23:15:09;;;;;;;15.05;8.10;;;26.80;73.40;;;;;;11975876;28;20068;-61
2021/07/20 23:20:56;;;;;;;18.20;8.35;;;26.80;73.80;;;;;;11989722;28;20050;-61
2021/07/20 23:26:43;;;;;;;19.35;8.88;;;26.70;73.60;;;;;;12011576;28;20504;-62
2021/07/20 23:32:31;;;;;;;18.13;8.07;;;26.60;74.20;;;;;;12054757;28;20045;-61
2021/07/20 23:38:18;;;;;;;21.55;8.40;;;26.40;74.40;;;;;;12028507;28;20531;-61
2021/07/20 23:44:07;;;;;;;19.92;8.05;;;26.40;74.60;;;;;;12048890;28;20515;-61
2021/07/20 23:49:56;;;;;;;18.60;8.48;;;26.30;75.20;;;;;;12020114;28;20048;-61
2021/07/20 23:55:44;;;;;;;18.35;9.63;;;26.30;75.50;;;;;;12011159;28;20060;-61
